Time;durP1;ratioP1;P1;durP2;ratioP2;P2;SDS_P1;SDS_P2;PMS_P1;PMS_P2;Temp;Humidity;BMP_temperature;BMP_pressure;BME280_temperature;BME280_humidity;BME280_pressure;Samples;Min_cycle;Max_cycle;Signal;HPM_P1;HPM_P2
2022/12/30 00:01:10;;;;;;;0.10;0.10;;;8.50;99.90;226.50;231333.00;;;;5035520;28;20256;-74
2022/12/30 00:03:38;;;;;;;0.00;0.00;;;8.50;99.90;226.50;231333.00;;;;5027929;28;20191;-72
2022/12/30 00:06:14;;;;;;;0.10;0.10;;;8.60;99.90;226.50;231333.00;;;;5038962;28;20248;-73
2022/12/30 00:08:49;;;;;;;0.10;0.10;;;8.50;99.90;226.50;231333.00;;;;5037017;28;20768;-72
2022/12/30 00:11:20;;;;;;;0.10;0.10;;;8.60;99.90;226.50;231333.00;;;;5035412;28;20241;-73
2022/12/30 00:33:48;;;;;;;0.10;0.10;;;8.40;99.90;226.50;231333.00;;;;5038563;28;20226;-72
2022/12/30 00:36:17;;;;;;;0.10;0.10;;;8.40;99.90;226.50;231333.00;;;;5032579;28;20200;-73
2022/12/30 00:38:46;;;;;;;0.10;0.10;;;8.40;99.90;226.50;231333.00;;;;5038449;28;20215;-73
2022/12/30 00:43:59;;;;;;;0.10;0.10;;;8.30;99.90;226.50;231333.00;;;;5031201;28;20202;-72
2022/12/30 00:46:27;;;;;;;0.10;0.10;;;8.30;99.90;226.50;231333.00;;;;5030037;28;20195;-72
2022/12/30 00:57:13;;;;;;;0.10;0.10;;;8.20;99.90;226.50;231333.00;;;;5027994;28;20536;-73
2022/12/30 00:59:41;;;;;;;0.10;0.10;;;8.20;99.90;226.50;231333.00;;;;5036709;28;20214;-73
2022/12/30 01:02:09;;;;;;;0.10;0.10;;;8.10;99.90;226.50;231333.00;;;;5035201;28;20227;-73
2022/12/30 01:04:38;;;;;;;0.10;0.10;;;8.10;99.90;226.50;231333.00;;;;5037342;28;20194;-73
2022/12/30 01:07:06;;;;;;;0.10;0.10;;;8.20;99.90;226.50;231333.00;;;;5032144;28;20219;-73
2022/12/30 01:09:37;;;;;;;0.10;0.10;;;8.20;99.90;226.50;231333.00;;;;5039577;28;20228;-73
2022/12/30 01:12:09;;;;;;;0.10;0.10;;;8.20;99.90;226.50;231333.00;;;;5031102;28;20204;-73
2022/12/30 01:14:40;;;;;;;0.10;0.10;;;8.10;99.90;226.50;231333.00;;;;5036654;28;20328;-73
2022/12/30 01:17:10;;;;;;;0.10;0.10;;;8.20;99.90;226.50;231333.00;;;;5038138;28;20210;-73
2022/12/30 01:19:39;;;;;;;0.10;0.10;;;8.10;99.90;226.50;231333.00;;;;5035763;28;20632;-73
2022/12/30 01:22:09;;;;;;;0.10;0.10;;;8.10;99.90;226.50;231333.00;;;;5038146;28;20674;-73
2022/12/30 01:24:38;;;;;;;0.10;0.10;;;8.10;99.90;226.50;231333.00;;;;5039232;28;20722;-73
2022/12/30 01:27:08;;;;;;;0.10;0.10;;;8.10;99.90;226.50;231333.00;;;;5043234;28;20194;-74
2022/12/30 01:29:38;;;;;;;0.10;0.10;;;8.10;99.90;226.50;231333.00;;;;5035003;28;20237;-73
2022/12/30 01:32:10;;;;;;;0.10;0.10;;;8.10;99.90;226.50;231333.00;;;;5041927;28;20252;-73
2022/12/30 01:34:39;;;;;;;0.10;0.10;;;8.10;99.90;226.50;231333.00;;;;5030535;28;20218;-73
2022/12/30 01:37:07;;;;;;;0.10;0.10;;;8.10;99.90;226.50;231333.00;;;;5036106;28;20735;-73
2022/12/30 01:39:35;;;;;;;0.10;0.10;;;8.10;99.90;226.50;231333.00;;;;5043873;28;20227;-74
2022/12/30 01:42:19;;;;;;;0.10;0.10;;;8.10;99.90;226.50;231333.00;;;;5044644;28;20199;-73
2022/12/30 01:44:59;;;;;;;0.10;0.10;;;8.10;99.90;226.50;231333.00;;;;5039836;28;20673;-73
2022/12/30 01:47:41;;;;;;;0.10;0.10;;;8.10;99.90;226.50;231333.00;;;;5043001;28;20248;-73
2022/12/30 01:50:27;;;;;;;0.10;0.10;;;8.10;99.90;226.50;231333.00;;;;5035724;28;20233;-73
2022/12/30 01:53:01;;;;;;;0.10;0.10;;;8.10;99.90;226.50;231333.00;;;;5035980;28;20195;-73
2022/12/30 01:55:36;;;;;;;0.10;0.10;;;8.10;99.90;226.50;231333.00;;;;5042092;28;20253;-74
2022/12/30 01:58:11;;;;;;;0.10;0.10;;;8.10;99.90;226.50;231333.00;;;;5035411;28;20206;-73
2022/12/30 02:00:39;;;;;;;0.10;0.10;;;8.10;99.90;226.50;231333.00;;;;5044303;28;20327;-73
2022/12/30 02:03:09;;;;;;;0.10;0.10;;;8.10;99.90;226.50;231333.00;;;;5028725;28;20192;-73
2022/12/30 02:05:42;;;;;;;0.10;0.10;;;8.10;99.90;226.50;231333.00;;;;5042815;28;20628;-74
2022/12/30 02:08:13;;;;;;;0.10;0.10;;;8.10;99.90;226.50;231333.00;;;;5030152;28;20227;-73
2022/12/30 02:10:46;;;;;;;0.10;0.10;;;8.10;99.90;226.50;231333.00;;;;5036514;28;20739;-73
2022/12/30 02:13:18;;;;;;;0.10;0.10;;;8.00;99.90;226.50;231333.00;;;;5030534;28;20712;-73
2022/12/30 02:16:09;;;;;;;0.10;0.10;;;8.00;99.90;226.50;231333.00;;;;5034235;28;20214;-73
2022/12/30 02:18:56;;;;;;;0.10;0.10;;;8.00;99.90;226.50;231333.00;;;;5035381;28;20227;-73
2022/12/30 02:21:46;;;;;;;0.10;0.10;;;8.00;99.90;226.50;231333.00;;;;5039351;28;20665;-71
2022/12/30 02:24:47;;;;;;;0.10;0.10;;;7.90;99.90;226.50;231333.00;;;;5023147;28;20199;-72
2022/12/30 02:27:36;;;;;;;0.10;0.10;;;7.80;99.90;226.50;231333.00;;;;5039003;28;20221;-72
2022/12/30 02:30:16;;;;;;;0.10;0.10;;;7.80;99.90;226.50;231333.00;;;;5042109;28;20195;-72
2022/12/30 02:33:03;;;;;;;0.10;0.10;;;7.80;99.90;226.50;231333.00;;;;5042388;28;20257;-72
2022/12/30 02:35:41;;;;;;;0.10;0.10;;;7.70;99.90;226.50;231333.00;;;;5042269;28;20281;-73
2022/12/30 02:38:23;;;;;;;0.10;0.10;;;7.70;99.90;226.50;231333.00;;;;5042586;28;20288;-72
2022/12/30 02:46:48;;;;;;;0.10;0.10;;;7.60;99.90;226.50;231333.00;;;;5039340;28;20198;-73
2022/12/30 02:49:21;;;;;;;0.10;0.10;;;7.50;99.90;226.50;231333.00;;;;5033705;28;20560;-73
2022/12/30 02:54:39;;;;;;;0.10;0.10;;;7.40;99.90;226.50;231333.00;;;;5041920;28;20219;-74
2022/12/30 02:57:25;;;;;;;0.10;0.10;;;7.40;99.90;226.50;231333.00;;;;5045103;28;20248;-73
2022/12/30 03:06:36;;;;;;;0.10;0.10;;;7.20;99.90;226.50;231333.00;;;;5029486;28;20202;-73
2022/12/30 03:09:20;;;;;;;0.10;0.10;;;7.20;99.90;226.50;231333.00;;;;5062801;22;20284;-72
2022/12/30 03:12:02;;;;;;;0.10;0.10;;;7.20;99.90;226.50;231333.00;;;;5035443;28;20202;-72
2022/12/30 03:14:40;;;;;;;0.10;0.10;;;7.20;99.90;226.50;231333.00;;;;5034696;28;20227;-72
2022/12/30 03:17:14;;;;;;;0.10;0.10;;;7.20;99.90;226.50;231333.00;;;;5037028;28;20199;-72
2022/12/30 03:19:47;;;;;;;0.10;0.10;;;7.10;99.90;226.50;231333.00;;;;5024630;28;20272;-72
2022/12/30 03:27:55;;;;;;;0.10;0.10;;;7.00;99.90;226.50;231333.00;;;;5007660;28;20378;-72
2022/12/30 03:30:24;;;;;;;0.10;0.10;;;7.00;99.90;226.50;231333.00;;;;4998146;28;20604;-72
2022/12/30 03:32:52;;;;;;;0.10;0.10;;;7.00;99.90;226.50;231333.00;;;;5017339;28;20188;-72
2022/12/30 03:35:23;;;;;;;0.10;0.10;;;6.90;99.90;226.50;231333.00;;;;5014351;28;20765;-72
2022/12/30 03:37:56;;;;;;;0.10;0.10;;;6.90;99.90;226.50;231333.00;;;;5005140;28;20191;-72
2022/12/30 03:40:30;;;;;;;0.10;0.10;;;6.90;99.90;226.50;231333.00;;;;5014875;28;20196;-72
2022/12/30 03:43:00;;;;;;;0.10;0.10;;;6.90;99.90;226.50;231333.00;;;;5001210;28;20244;-72
2022/12/30 03:45:28;;;;;;;0.10;0.10;;;6.80;99.90;226.50;231333.00;;;;5025316;28;20207;-73
2022/12/30 03:47:56;;;;;;;0.10;0.10;;;6.80;99.90;226.50;231333.00;;;;5020475;28;20670;-72
2022/12/30 03:50:24;;;;;;;0.03;0.03;;;6.80;99.90;226.50;231333.00;;;;5027342;28;20249;-72
2022/12/30 03:52:53;;;;;;;0.10;0.10;;;6.70;99.90;226.50;231333.00;;;;5019556;28;20219;-72
2022/12/30 03:55:21;;;;;;;0.10;0.10;;;6.70;99.90;226.50;231333.00;;;;5026204;28;20689;-71
2022/12/30 03:57:49;;;;;;;0.10;0.10;;;6.70;99.90;226.50;231333.00;;;;5019951;28;20251;-72
2022/12/30 04:00:18;;;;;;;0.10;0.10;;;6.70;99.90;226.50;231333.00;;;;5023714;28;20199;-72
2022/12/30 04:02:46;;;;;;;0.10;0.10;;;6.70;99.90;226.50;231333.00;;;;5017691;28;20188;-72
2022/12/30 04:05:14;;;;;;;0.10;0.10;;;6.70;99.90;226.50;231333.00;;;;5020227;28;20232;-72
2022/12/30 04:07:42;;;;;;;0.10;0.10;;;6.70;99.90;226.50;231333.00;;;;4994974;28;20212;-73
2022/12/30 04:10:11;;;;;;;0.10;0.10;;;6.70;99.90;226.50;231333.00;;;;5018869;28;20294;-73
2022/12/30 04:12:40;;;;;;;0.10;0.10;;;6.80;99.90;226.50;231333.00;;;;5015970;28;20301;-73
2022/12/30 04:15:09;;;;;;;0.10;0.10;;;6.80;99.90;226.50;231333.00;;;;5017876;28;20219;-73
2022/12/30 04:17:37;;;;;;;0.10;0.10;;;6.90;99.90;226.50;231333.00;;;;5018276;28;20206;-72
2022/12/30 04:20:07;;;;;;;0.10;0.10;;;6.90;99.90;226.50;231333.00;;;;5015824;28;20238;-73
2022/12/30 04:22:35;;;;;;;0.10;0.10;;;7.00;99.90;226.50;231333.00;;;;5011467;28;20717;-72
2022/12/30 04:25:03;;;;;;;0.10;0.10;;;7.10;99.90;226.50;231333.00;;;;5022996;28;20203;-73
2022/12/30 04:27:33;;;;;;;0.10;0.10;;;7.20;99.90;226.50;231333.00;;;;5011525;28;20211;-73
2022/12/30 04:30:01;;;;;;;0.10;0.10;;;7.30;99.90;226.50;231333.00;;;;5023474;28;20322;-73
2022/12/30 04:32:29;;;;;;;0.10;0.10;;;7.40;99.90;226.50;231333.00;;;;5009556;28;20693;-73
2022/12/30 04:34:56;;;;;;;0.10;0.10;;;7.30;99.90;226.50;231333.00;;;;5008479;28;20559;-73
2022/12/30 04:37:24;;;;;;;0.10;0.10;;;7.20;99.90;226.50;231333.00;;;;5010971;28;20204;-73
2022/12/30 04:39:52;;;;;;;0.10;0.10;;;7.10;99.90;226.50;231333.00;;;;5016013;28;20237;-73
2022/12/30 04:42:20;;;;;;;0.10;0.10;;;7.20;99.90;226.50;231333.00;;;;5013669;28;20753;-75
2022/12/30 04:44:50;;;;;;;0.10;0.10;;;7.10;99.90;226.50;231333.00;;;;5020445;28;20203;-73
2022/12/30 04:47:18;;;;;;;0.10;0.10;;;7.10;99.90;226.50;231333.00;;;;5024402;28;20203;-74
2022/12/30 04:49:45;;;;;;;0.10;0.10;;;7.10;99.90;226.50;231333.00;;;;5016429;28;20222;-73
2022/12/30 04:52:13;;;;;;;0.10;0.10;;;7.10;99.90;226.50;231333.00;;;;5017737;28;20231;-73
2022/12/30 04:54:41;;;;;;;0.10;0.10;;;7.10;99.90;226.50;231333.00;;;;5024912;28;20187;-73
2022/12/30 04:57:09;;;;;;;0.10;0.10;;;7.10;99.90;226.50;231333.00;;;;5018310;28;20435;-73
2022/12/30 04:59:37;;;;;;;0.10;0.10;;;7.10;99.90;226.50;231333.00;;;;5023864;28;20240;-73
2022/12/30 05:02:06;;;;;;;0.10;0.10;;;7.10;99.90;226.50;231333.00;;;;5020607;28;20601;-73
2022/12/30 05:04:35;;;;;;;0.10;0.10;;;7.10;99.90;226.50;231333.00;;;;5003842;28;20702;-72
2022/12/30 05:07:04;;;;;;;0.10;0.10;;;7.10;99.90;226.50;231333.00;;;;5018150;28;20254;-72
2022/12/30 05:09:32;;;;;;;0.10;0.10;;;7.00;99.90;226.50;231333.00;;;;5021686;28;20240;-72
2022/12/30 05:12:00;;;;;;;0.10;0.10;;;7.00;99.90;226.50;231333.00;;;;5015970;28;20199;-73
2022/12/30 05:14:28;;;;;;;0.10;0.10;;;7.00;99.90;226.50;231333.00;;;;5023155;28;20204;-72
2022/12/30 05:16:56;;;;;;;0.10;0.10;;;7.00;99.90;226.50;231333.00;;;;5014955;28;20254;-73
2022/12/30 05:19:26;;;;;;;0.10;0.10;;;6.90;99.90;226.50;231333.00;;;;5024692;28;20212;-75
2022/12/30 05:21:54;;;;;;;0.10;0.10;;;6.90;99.90;226.50;231333.00;;;;5016062;28;20200;-72
2022/12/30 05:27:07;;;;;;;0.10;0.10;;;6.90;99.90;226.50;231333.00;;;;5012774;28;20253;-73
2022/12/30 05:29:35;;;;;;;0.10;0.10;;;6.80;99.90;226.50;231333.00;;;;5026908;28;20224;-72
2022/12/30 05:32:03;;;;;;;0.10;0.10;;;6.80;99.90;226.50;231333.00;;;;5016910;28;20192;-72
2022/12/30 05:34:32;;;;;;;0.10;0.10;;;6.80;99.90;226.50;231333.00;;;;5010066;28;20231;-72
2022/12/30 05:37:00;;;;;;;0.10;0.10;;;6.80;99.90;226.50;231333.00;;;;5016397;28;20223;-73
2022/12/30 05:39:28;;;;;;;0.10;0.10;;;6.80;99.90;226.50;231333.00;;;;5019153;28;20244;-72
2022/12/30 05:41:56;;;;;;;0.10;0.10;;;6.80;99.90;226.50;231333.00;;;;5024379;28;20249;-72
2022/12/30 05:44:25;;;;;;;0.10;0.10;;;6.80;99.90;226.50;231333.00;;;;5025262;28;20197;-72
2022/12/30 05:46:54;;;;;;;0.10;0.10;;;6.80;99.90;226.50;231333.00;;;;5024440;28;20249;-73
2022/12/30 05:49:21;;;;;;;0.10;0.10;;;6.80;99.90;226.50;231333.00;;;;5020355;28;20267;-73
2022/12/30 05:51:51;;;;;;;0.00;0.00;;;6.80;99.90;226.50;231333.00;;;;5016305;28;20200;-74
2022/12/30 05:54:19;;;;;;;0.10;0.10;;;6.80;99.90;226.50;231333.00;;;;5014767;28;20205;-72
2022/12/30 05:56:47;;;;;;;0.10;0.10;;;6.70;99.90;226.50;231333.00;;;;5008075;28;20654;-72
2022/12/30 05:59:15;;;;;;;0.10;0.10;;;6.70;99.90;226.50;231333.00;;;;5019206;28;20650;-72
2022/12/30 06:01:43;;;;;;;0.10;0.10;;;6.60;99.90;226.50;231333.00;;;;5016042;28;20257;-72
2022/12/30 06:04:11;;;;;;;0.10;0.10;;;6.70;99.90;226.50;231333.00;;;;5028278;28;20213;-72
2022/12/30 06:06:39;;;;;;;0.10;0.10;;;6.60;99.90;226.50;231333.00;;;;5017139;28;20203;-73
2022/12/30 06:09:09;;;;;;;0.10;0.10;;;6.60;99.90;226.50;231333.00;;;;5024738;28;20222;-71
2022/12/30 06:11:37;;;;;;;0.00;0.00;;;6.60;99.90;226.50;231333.00;;;;5013495;28;20188;-71
2022/12/30 06:14:05;;;;;;;0.10;0.10;;;6.50;99.90;226.50;231333.00;;;;5019650;28;20720;-71
2022/12/30 06:16:33;;;;;;;0.10;0.10;;;6.50;99.90;226.50;231333.00;;;;5009662;28;20275;-71
2022/12/30 06:19:01;;;;;;;0.10;0.10;;;6.50;99.90;226.50;231333.00;;;;5022147;28;20317;-71
2022/12/30 06:21:29;;;;;;;0.10;0.10;;;6.50;99.90;226.50;231333.00;;;;5007494;28;20723;-74
2022/12/30 06:23:57;;;;;;;0.10;0.10;;;6.30;99.90;226.50;231333.00;;;;5015995;28;20245;-74
2022/12/30 06:26:27;;;;;;;0.10;0.10;;;6.30;99.90;226.50;231333.00;;;;5007053;28;20678;-73
2022/12/30 06:28:55;;;;;;;0.10;0.10;;;6.20;99.90;226.50;231333.00;;;;5025290;28;20265;-71
2022/12/30 06:31:23;;;;;;;0.10;0.10;;;6.20;99.90;226.50;231333.00;;;;5010534;28;20258;-72
2022/12/30 06:33:51;;;;;;;0.10;0.10;;;6.10;99.90;226.50;231333.00;;;;5015162;28;20702;-72
2022/12/30 06:36:19;;;;;;;0.10;0.10;;;6.10;99.90;226.50;231333.00;;;;5009206;28;20220;-72
2022/12/30 06:38:46;;;;;;;0.10;0.10;;;6.10;99.90;226.50;231333.00;;;;5018808;28;20228;-73
2022/12/30 06:41:14;;;;;;;0.10;0.10;;;6.10;99.90;226.50;231333.00;;;;5010591;28;20741;-76
2022/12/30 06:43:44;;;;;;;0.10;0.10;;;6.10;99.90;226.50;231333.00;;;;5027396;28;20471;-72
2022/12/30 06:46:12;;;;;;;0.10;0.10;;;6.20;99.90;226.50;231333.00;;;;5020163;28;20207;-74
2022/12/30 06:48:40;;;;;;;0.10;0.10;;;6.20;99.90;226.50;231333.00;;;;5020387;28;20222;-74
2022/12/30 06:51:08;;;;;;;0.10;0.10;;;6.20;99.90;226.50;231333.00;;;;5019028;28;20254;-73
2022/12/30 06:53:36;;;;;;;0.10;0.10;;;6.20;99.90;226.50;231333.00;;;;5017532;28;20677;-72
2022/12/30 06:56:06;;;;;;;0.10;0.10;;;6.20;99.90;226.50;231333.00;;;;5017551;28;20223;-72
2022/12/30 06:58:34;;;;;;;0.10;0.10;;;6.20;99.90;226.50;231333.00;;;;5024190;28;20216;-72
2022/12/30 07:01:03;;;;;;;0.10;0.10;;;6.20;99.90;226.50;231333.00;;;;5012885;28;20742;-72
2022/12/30 07:03:31;;;;;;;0.10;0.10;;;6.20;99.90;226.50;231333.00;;;;5024483;28;20206;-73
2022/12/30 07:05:59;;;;;;;0.10;0.10;;;6.20;99.90;226.50;231333.00;;;;5010407;28;20228;-72
2022/12/30 07:08:27;;;;;;;0.10;0.10;;;6.10;99.90;226.50;231333.00;;;;5026807;28;20226;-71
2022/12/30 07:10:55;;;;;;;0.10;0.10;;;6.20;99.90;226.50;231333.00;;;;5017056;28;20195;-71
2022/12/30 07:13:25;;;;;;;0.10;0.10;;;6.10;99.90;226.50;231333.00;;;;5009419;28;20203;-71
2022/12/30 07:15:54;;;;;;;0.10;0.10;;;6.10;99.90;226.50;231333.00;;;;5013523;28;20200;-72
2022/12/30 07:18:23;;;;;;;0.10;0.10;;;6.10;99.90;226.50;231333.00;;;;5018601;28;20231;-73
2022/12/30 07:20:51;;;;;;;0.10;0.10;;;6.00;99.90;226.50;231333.00;;;;5012351;28;20546;-72
2022/12/30 07:23:19;;;;;;;0.10;0.10;;;6.10;99.90;226.50;231333.00;;;;5014808;28;20249;-73
2022/12/30 07:25:47;;;;;;;0.10;0.10;;;6.10;99.90;226.50;231333.00;;;;5017243;28;20602;-72
2022/12/30 07:28:15;;;;;;;0.10;0.10;;;6.10;99.90;226.50;231333.00;;;;5016122;28;20231;-72
2022/12/30 07:30:43;;;;;;;0.10;0.10;;;6.00;99.90;226.50;231333.00;;;;5019681;28;20217;-71
2022/12/30 07:33:11;;;;;;;0.10;0.10;;;6.00;99.90;226.50;231333.00;;;;5017342;28;20301;-70
2022/12/30 07:35:40;;;;;;;0.10;0.10;;;6.00;99.90;226.50;231333.00;;;;5014495;28;20257;-71
2022/12/30 07:38:08;;;;;;;0.10;0.10;;;5.90;99.90;226.50;231333.00;;;;5015683;28;20705;-72
2022/12/30 07:40:36;;;;;;;0.10;0.10;;;5.90;99.90;226.50;231333.00;;;;5002551;28;20202;-73
2022/12/30 07:43:05;;;;;;;0.10;0.10;;;5.90;99.90;226.50;231333.00;;;;5009684;28;20196;-71
2022/12/30 07:45:33;;;;;;;0.10;0.10;;;5.90;99.90;226.50;231333.00;;;;5025665;28;20206;-75
2022/12/30 07:48:00;;;;;;;0.10;0.10;;;5.90;99.90;226.50;231333.00;;;;5013116;28;20250;-75
2022/12/30 07:50:28;;;;;;;0.10;0.10;;;5.90;99.90;226.50;231333.00;;;;5021084;28;20602;-73
2022/12/30 07:52:59;;;;;;;0.00;0.00;;;5.90;99.90;226.50;231333.00;;;;5019773;28;20196;-73
2022/12/30 07:55:27;;;;;;;0.10;0.10;;;6.00;99.90;226.50;231333.00;;;;5003048;28;20197;-73
2022/12/30 07:57:55;;;;;;;0.10;0.10;;;6.00;99.90;226.50;231333.00;;;;5005608;28;20614;-73
2022/12/30 08:00:23;;;;;;;0.10;0.10;;;6.00;99.90;226.50;231333.00;;;;4991360;28;20200;-73
2022/12/30 08:02:54;;;;;;;0.10;0.10;;;6.10;99.90;226.50;231333.00;;;;5020995;28;20199;-73
2022/12/30 08:05:22;;;;;;;0.10;0.10;;;6.10;99.90;226.50;231333.00;;;;5013774;28;20200;-73
2022/12/30 08:07:52;;;;;;;0.10;0.10;;;6.20;99.90;226.50;231333.00;;;;5026061;28;20689;-74
2022/12/30 08:10:21;;;;;;;0.10;0.10;;;6.20;99.90;226.50;231333.00;;;;5012493;28;20679;-73
2022/12/30 08:12:50;;;;;;;0.10;0.10;;;6.30;99.90;226.50;231333.00;;;;4997738;28;20233;-73
2022/12/30 08:15:18;;;;;;;0.10;0.10;;;6.30;99.90;226.50;231333.00;;;;5013879;28;20204;-74
2022/12/30 08:17:46;;;;;;;0.10;0.10;;;6.40;99.90;226.50;231333.00;;;;5004369;28;20223;-74
2022/12/30 08:20:14;;;;;;;0.10;0.10;;;6.50;99.90;226.50;231333.00;;;;5004348;28;20208;-74
2022/12/30 08:22:42;;;;;;;0.10;0.10;;;6.60;99.90;226.50;231333.00;;;;4992581;28;20215;-75
2022/12/30 08:25:19;;;;;;;0.10;0.10;;;6.60;99.90;226.50;231333.00;;;;5019107;28;20570;-74
2022/12/30 08:27:49;;;;;;;0.10;0.10;;;6.60;99.90;226.50;231333.00;;;;5000990;28;20202;-73
2022/12/30 08:30:17;;;;;;;0.10;0.10;;;6.60;99.90;226.50;231333.00;;;;5016233;28;20266;-74
2022/12/30 08:32:45;;;;;;;0.10;0.10;;;6.60;99.90;226.50;231333.00;;;;5009969;28;20199;-73
2022/12/30 08:35:13;;;;;;;0.10;0.10;;;6.70;99.90;226.50;231333.00;;;;5013710;28;20206;-74
2022/12/30 08:37:41;;;;;;;0.10;0.10;;;6.70;99.90;226.50;231333.00;;;;5018618;28;20629;-73
2022/12/30 08:40:11;;;;;;;0.10;0.10;;;6.70;99.90;226.50;231333.00;;;;5018326;28;20729;-74
2022/12/30 08:42:39;;;;;;;0.10;0.10;;;6.70;99.90;226.50;231333.00;;;;5014983;28;20746;-73
2022/12/30 08:45:10;;;;;;;0.10;0.10;;;6.70;99.90;226.50;231333.00;;;;5023351;28;20194;-74
2022/12/30 08:47:38;;;;;;;0.10;0.10;;;6.80;99.90;226.50;231333.00;;;;5020201;28;20261;-73
2022/12/30 08:50:07;;;;;;;0.10;0.10;;;6.80;99.90;226.50;231333.00;;;;5022216;28;20625;-73
2022/12/30 08:52:37;;;;;;;0.10;0.10;;;6.90;99.90;226.50;231333.00;;;;5005202;28;20259;-74
2022/12/30 08:55:06;;;;;;;0.10;0.10;;;6.90;99.90;226.50;231333.00;;;;5014983;28;20196;-74
2022/12/30 08:57:33;;;;;;;0.00;0.00;;;6.90;99.90;226.50;231333.00;;;;5022404;28;20223;-73
2022/12/30 09:00:02;;;;;;;0.10;0.10;;;6.90;99.90;226.50;231333.00;;;;5015028;28;20212;-73
2022/12/30 09:02:33;;;;;;;0.10;0.10;;;7.00;99.90;226.50;231333.00;;;;5008063;28;20671;-73
2022/12/30 09:05:01;;;;;;;0.05;0.05;;;7.00;99.90;226.50;231333.00;;;;5016864;28;20631;-73
2022/12/30 09:07:29;;;;;;;0.10;0.10;;;7.10;99.90;226.50;231333.00;;;;5017461;28;20813;-73
2022/12/30 09:10:17;;;;;;;0.10;0.10;;;7.10;99.90;226.50;231333.00;;;;5009620;28;20645;-75
2022/12/30 09:12:45;;;;;;;0.10;0.10;;;7.20;99.90;226.50;231333.00;;;;5013199;28;20246;-75
2022/12/30 09:15:13;;;;;;;0.10;0.10;;;7.30;99.90;226.50;231333.00;;;;5017567;28;20601;-75
2022/12/30 09:17:43;;;;;;;0.10;0.10;;;7.20;99.90;226.50;231333.00;;;;5018783;28;20215;-75
2022/12/30 09:20:11;;;;;;;0.10;0.10;;;7.30;99.90;226.50;231333.00;;;;5018208;28;20600;-75
2022/12/30 09:22:47;;;;;;;0.10;0.10;;;7.30;99.90;226.50;231333.00;;;;5007094;28;20197;-75
2022/12/30 09:25:16;;;;;;;0.10;0.10;;;7.20;99.90;226.50;231333.00;;;;5008823;28;20206;-75
2022/12/30 09:27:44;;;;;;;0.10;0.10;;;7.20;99.90;226.50;231333.00;;;;5013179;28;20654;-75
2022/12/30 09:30:13;;;;;;;0.10;0.10;;;7.20;99.90;226.50;231333.00;;;;5021901;28;20666;-75
2022/12/30 09:32:42;;;;;;;0.10;0.10;;;7.20;99.90;226.50;231333.00;;;;5021644;28;20203;-75
2022/12/30 09:35:10;;;;;;;0.10;0.10;;;7.20;99.90;226.50;231333.00;;;;5010538;28;20250;-75
2022/12/30 09:37:38;;;;;;;0.10;0.10;;;7.20;99.90;226.50;231333.00;;;;5024229;28;20563;-75
2022/12/30 09:40:13;;;;;;;0.10;0.10;;;7.30;99.90;226.50;231333.00;;;;5006370;28;20267;-76
2022/12/30 09:45:32;;;;;;;0.10;0.10;;;7.30;99.90;226.50;231333.00;;;;5012812;28;20265;-75
2022/12/30 09:48:06;;;;;;;0.10;0.10;;;7.40;99.90;226.50;231333.00;;;;5023632;28;20724;-75
2022/12/30 09:50:41;;;;;;;0.05;0.05;;;7.50;99.90;226.50;231333.00;;;;5027257;28;20234;-75
2022/12/30 09:53:19;;;;;;;0.10;0.10;;;7.50;99.90;226.50;231333.00;;;;5022333;28;20199;-76
2022/12/30 09:55:56;;;;;;;0.10;0.10;;;7.60;99.90;226.50;231333.00;;;;4998317;28;20247;-76
2022/12/30 09:58:30;;;;;;;0.10;0.10;;;7.60;99.90;226.50;231333.00;;;;5017465;28;20237;-75
2022/12/30 10:01:13;;;;;;;0.10;0.10;;;7.60;99.90;226.50;231333.00;;;;5015629;28;20195;-76
2022/12/30 10:03:42;;;;;;;0.00;0.00;;;7.60;99.90;226.50;231333.00;;;;5023056;28;20209;-75
2022/12/30 10:06:34;;;;;;;0.10;0.10;;;7.70;99.90;226.50;231333.00;;;;5012199;28;20658;-75
2022/12/30 10:09:38;;;;;;;0.10;0.10;;;7.70;99.90;226.50;231333.00;;;;5023814;28;20237;-76
2022/12/30 10:12:40;;;;;;;0.10;0.10;;;7.70;99.90;226.50;231333.00;;;;5015903;28;20289;-75
2022/12/30 10:15:36;;;;;;;0.10;0.10;;;7.80;99.90;226.50;231333.00;;;;5015817;28;20204;-75
2022/12/30 10:18:34;;;;;;;0.10;0.10;;;7.70;99.90;226.50;231333.00;;;;5012065;28;20761;-74
2022/12/30 10:21:21;;;;;;;0.10;0.10;;;7.70;99.90;226.50;231333.00;;;;5010239;28;20611;-75
2022/12/30 10:24:12;;;;;;;0.10;0.10;;;7.70;99.90;226.50;231333.00;;;;5018269;28;20249;-75
2022/12/30 10:26:46;;;;;;;0.10;0.10;;;7.70;99.90;226.50;231333.00;;;;5014865;28;20274;-75
2022/12/30 10:29:18;;;;;;;0.10;0.10;;;7.60;99.90;226.50;231333.00;;;;5022033;28;20218;-74
2022/12/30 10:31:50;;;;;;;0.10;0.10;;;7.60;99.90;226.50;231333.00;;;;5008243;28;20209;-75
2022/12/30 10:34:21;;;;;;;0.10;0.10;;;7.70;99.90;226.50;231333.00;;;;5011233;28;20200;-75
2022/12/30 10:36:59;;;;;;;0.10;0.10;;;7.70;99.90;226.50;231333.00;;;;5012108;28;20199;-76
2022/12/30 10:39:33;;;;;;;0.10;0.10;;;7.70;99.90;226.50;231333.00;;;;5018842;28;20220;-76
2022/12/30 10:42:21;;;;;;;0.10;0.10;;;7.70;99.90;226.50;231333.00;;;;5011227;28;20702;-75
2022/12/30 10:45:18;;;;;;;0.10;0.10;;;7.80;99.90;226.50;231333.00;;;;5010874;28;20199;-75
2022/12/30 10:47:59;;;;;;;0.10;0.10;;;7.80;99.90;226.50;231333.00;;;;5018123;28;20199;-76
2022/12/30 10:50:37;;;;;;;0.10;0.10;;;7.90;99.90;226.50;231333.00;;;;5023868;28;20252;-75
2022/12/30 10:53:16;;;;;;;0.10;0.10;;;7.90;99.90;226.50;231333.00;;;;5005164;28;20257;-75
2022/12/30 10:55:49;;;;;;;0.10;0.10;;;7.90;99.90;226.50;231333.00;;;;5024458;28;20228;-75
2022/12/30 10:58:26;;;;;;;0.10;0.10;;;8.00;99.90;226.50;231333.00;;;;5019789;28;20640;-75
2022/12/30 11:00:56;;;;;;;0.10;0.10;;;8.00;99.90;226.50;231333.00;;;;5010909;28;20245;-76
2022/12/30 11:03:38;;;;;;;0.10;0.10;;;8.00;99.90;226.50;231333.00;;;;5019468;28;20203;-75
2022/12/30 11:06:23;;;;;;;0.10;0.10;;;8.00;99.90;226.50;231333.00;;;;5011785;28;20258;-75
2022/12/30 11:09:14;;;;;;;0.10;0.10;;;8.00;99.90;226.50;231333.00;;;;4992347;28;20284;-76
2022/12/30 11:15:02;;;;;;;0.10;0.10;;;8.00;99.90;226.50;231333.00;;;;5019286;28;20257;-75
2022/12/30 11:17:41;;;;;;;0.10;0.10;;;8.10;99.90;226.50;231333.00;;;;5009525;28;20204;-76
2022/12/30 11:20:30;;;;;;;0.10;0.10;;;8.10;99.90;226.50;231333.00;;;;5013974;28;20231;-75
2022/12/30 11:23:01;;;;;;;0.10;0.10;;;8.20;99.90;226.50;231333.00;;;;5013292;28;20203;-74
2022/12/30 11:25:34;;;;;;;0.10;0.10;;;8.20;99.90;226.50;231333.00;;;;5021300;28;20250;-76
2022/12/30 11:28:06;;;;;;;0.10;0.10;;;8.20;99.90;226.50;231333.00;;;;5013337;28;20202;-75
2022/12/30 11:30:39;;;;;;;0.10;0.10;;;8.20;99.90;226.50;231333.00;;;;5020750;28;20879;-75
2022/12/30 11:33:19;;;;;;;0.10;0.10;;;8.30;99.90;226.50;231333.00;;;;5015326;28;20195;-76
2022/12/30 11:35:50;;;;;;;0.10;0.10;;;8.50;99.90;226.50;231333.00;;;;5013945;28;20479;-76
2022/12/30 11:38:32;;;;;;;0.10;0.10;;;8.50;99.90;226.50;231333.00;;;;5018673;28;20222;-76
2022/12/30 11:41:20;;;;;;;0.10;0.10;;;8.50;99.90;226.50;231333.00;;;;5011368;28;20211;-76
2022/12/30 11:43:51;;;;;;;0.10;0.10;;;8.40;99.90;226.50;231333.00;;;;5008354;28;20209;-75
2022/12/30 11:46:23;;;;;;;0.10;0.10;;;8.40;99.90;226.50;231333.00;;;;5014841;28;20212;-75
2022/12/30 11:48:54;;;;;;;0.10;0.10;;;8.50;99.90;226.50;231333.00;;;;5016480;28;20632;-75
2022/12/30 11:51:26;;;;;;;0.10;0.10;;;8.80;99.90;226.50;231333.00;;;;5016515;28;20616;-75
2022/12/30 11:54:06;;;;;;;0.10;0.10;;;8.90;99.90;226.50;231333.00;;;;5018862;28;20191;-75
2022/12/30 11:56:38;;;;;;;0.10;0.10;;;8.80;99.90;226.50;231333.00;;;;5016019;28;20210;-74
2022/12/30 11:59:14;;;;;;;0.10;0.10;;;9.00;99.90;226.50;231333.00;;;;5008289;28;20686;-75
2022/12/30 12:01:47;;;;;;;0.10;0.10;;;10.60;99.90;226.50;231333.00;;;;5012860;28;20198;-75
2022/12/30 12:04:36;;;;;;;0.10;0.10;;;10.60;99.90;226.50;231333.00;;;;5019965;28;20238;-75
2022/12/30 12:07:06;;;;;;;0.10;0.10;;;9.80;99.90;226.50;231333.00;;;;5006299;28;20195;-75
2022/12/30 12:09:39;;;;;;;0.10;0.10;;;9.20;99.90;226.50;231333.00;;;;5008859;28;20228;-75